Terminal Aerodrome Forecast
Issued by NWS Mt. Holly, NJ

Home | Current Version | Previous Version | Text Only | Print | Product List | Glossary On
Versions: 1 2 3 4 5 6 7 8 9 10 11 12 13 14 15 16 17 18
000
FTUS41 KPHI 260802 AAA
TAFRDG
TAF AMD
KRDG 260802Z 2608/2706 VRB03KT 4SM BR SCT250
      TEMPO 2608/2612 1SM BR BKN003
     FM261300 31006KT P6SM SCT025
     FM261500 29010KT P6SM SCT050
     FM270000 VRB03KT P6SM SCT250=

USA.gov is the U.S. government's official web portal to all federal, state and local government web resources and services.